首页
METAR-TAF:

METAR-TAF

机场 :

威尔明顿, 特拉华州, 美国

纬度: 39-40-22N, 经度: 075-36-03W, 海拔: 24米

当前天气观测

该预报发布于14分钟前的15:20 UTC
风速6节,风向东南
温度 25°C
湿度 83%
气压 1014 hPa
能見度: 16.1公里
多云层高于1100英尺
阴天层高于11000英尺

METAR: KILG 181520Z 14006KT 10SM BKN011 OVC110 25/22 A2993 RMK AO2 T02500222

时间: 11:34 (15:34 UTC)

预报

该预报发布于2小时和24分钟前的13:10 UTC
预报有效从18日的 13点(UTC)到 19日的 12点(UTC)
风速5节,风向东南
能見度: 9.7公里
多云层高于700英尺
阴天层高于1500英尺
小阵雨, 轻雾
从 18日的 1600点(UTC)
风速4节,风向
能見度: 10公里
多云层高于2000英尺
附近有阵雨
从 18日的 1800点(UTC)
风速5节,风向西转西南
能見度: 10公里
散云层高于2500英尺
多云层高于5000英尺
从 18日的 2000点(UTC)
风速9节,风向西
能見度: 10公里
多云层高于3500英尺, 积雨云.
阵雨, 附近有雷暴
从 19日的 0000点(UTC)
风速5节,风向西
能見度: 10公里
多云层高于4000英尺
附近有阵雨
从 19日的 0400点(UTC)
风速3节,风向多变
能見度: 4.8公里
阴天层高于700英尺
轻雾

TAF: KILG 181310Z 1813/1912 14005KT 6SM -SHRA BR BKN007 OVC015 FM181600 19004KT P6SM VCSH BKN020 FM181800 25005KT P6SM SCT025 BKN050 FM182000 26009KT P6SM SHRA VCTS BKN035CB FM190000 27005KT P6SM VCSH BKN040 FM190400 VRB03KT 3SM BR OVC007

超过4000个机场的气象观测和天气预报(METAR&TAF报告)。

可查询的气象台以黄色和红色小点在地图上表示。

将鼠标移到小点上方,可查看气象台名称。

然后点击查看天气观测和预报。

如需切换地图:点击带黑十字的绿色按钮放大地图;点击带横线的绿色按钮缩小地图;或者点击绿色箭头查看邻近地区的地图。


METAR-TAF: